Time;durP1;ratioP1;P1;durP2;ratioP2;P2;SDS_P1;SDS_P2;PMS_P1;PMS_P2;Temp;Humidity;BMP_temperature;BMP_pressure;BME280_temperature;BME280_humidity;BME280_pressure;Samples;Min_cycle;Max_cycle;Signal;HPM_P1;HPM_P2
2021/04/17 00:02:15;;;;;;;4.47;2.72;;;6.60;99.90;;;;;;5014365;28;20429;-67
2021/04/17 00:04:42;;;;;;;4.80;2.92;;;6.60;99.90;;;;;;5014790;28;20561;-67
2021/04/17 00:07:13;;;;;;;6.40;2.90;;;6.60;99.90;;;;;;5014722;28;20080;-65
2021/04/17 00:09:40;;;;;;;6.07;2.38;;;6.70;99.90;;;;;;5014697;28;20065;-65
2021/04/17 00:12:14;;;;;;;4.32;2.75;;;6.60;99.90;;;;;;5014640;28;20633;-65
2021/04/17 00:14:47;;;;;;;4.60;2.33;;;6.60;99.90;;;;;;4997113;28;20026;-65
2021/04/17 00:17:15;;;;;;;7.15;2.58;;;6.60;99.90;;;;;;5014704;28;20037;-66
2021/04/17 00:19:44;;;;;;;5.93;2.50;;;6.50;99.90;;;;;;5014080;28;20475;-66
2021/04/17 00:22:11;;;;;;;3.97;2.65;;;6.50;99.90;;;;;;5014316;28;20032;-65
2021/04/17 00:24:37;;;;;;;6.47;2.55;;;6.50;99.90;;;;;;5014304;28;20048;-65
2021/04/17 00:27:03;;;;;;;5.18;2.78;;;6.60;99.90;;;;;;4997058;28;20125;-65
2021/04/17 00:29:31;;;;;;;4.18;2.53;;;6.60;99.90;;;;;;5014363;28;20033;-65
2021/04/17 00:31:59;;;;;;;7.82;2.80;;;6.60;99.90;;;;;;5013294;28;20044;-65
2021/04/17 00:34:25;;;;;;;6.47;2.72;;;6.70;99.90;;;;;;5014104;28;20429;-65
2021/04/17 00:36:51;;;;;;;6.40;2.53;;;6.60;99.90;;;;;;5014190;28;20471;-66
2021/04/17 00:39:17;;;;;;;4.78;2.70;;;6.50;99.90;;;;;;5014020;28;20022;-66
2021/04/17 00:41:43;;;;;;;7.13;3.00;;;6.40;99.90;;;;;;5014142;28;20025;-65
2021/04/17 00:44:09;;;;;;;4.60;2.60;;;6.20;99.90;;;;;;4996377;28;20113;-65
2021/04/17 00:46:34;;;;;;;5.85;2.70;;;6.30;99.90;;;;;;5013676;28;20061;-66
2021/04/17 00:49:07;;;;;;;5.70;2.97;;;6.20;99.90;;;;;;4996355;28;20041;-66
2021/04/17 00:51:33;;;;;;;4.72;2.42;;;6.20;99.90;;;;;;5013569;28;20717;-66
2021/04/17 00:53:59;;;;;;;4.63;2.70;;;6.00;99.90;;;;;;4996423;28;20368;-65
2021/04/17 00:56:25;;;;;;;4.80;2.38;;;5.80;99.90;;;;;;5013654;28;20026;-66
2021/04/17 00:58:51;;;;;;;4.35;2.67;;;5.70;99.90;;;;;;5013788;28;20030;-66
2021/04/17 01:01:17;;;;;;;4.70;2.60;;;5.70;99.90;;;;;;5013750;28;20498;-66
2021/04/17 01:04:20;;;;;;;4.65;2.38;;;5.80;99.90;;;;;;5013459;28;20467;-66
2021/04/17 01:07:02;;;;;;;5.25;2.65;;;5.70;99.90;;;;;;4998291;28;20123;-66
2021/04/17 01:09:54;;;;;;;6.45;2.88;;;5.70;99.90;;;;;;4981029;28;20116;-67
2021/04/17 01:12:27;;;;;;;5.03;2.92;;;5.70;99.90;;;;;;4998613;28;20038;-65
2021/04/17 01:14:54;;;;;;;8.20;3.42;;;5.80;99.90;;;;;;5013507;28;20058;-66
2021/04/17 01:17:21;;;;;;;4.38;2.97;;;5.80;99.90;;;;;;4995851;28;20033;-66
2021/04/17 01:20:12;;;;;;;4.38;2.67;;;5.80;99.90;;;;;;4995622;28;20049;-66
2021/04/17 01:22:42;;;;;;;3.90;2.60;;;5.80;99.90;;;;;;5013275;28;20030;-65
2021/04/17 01:25:14;;;;;;;5.32;3.03;;;5.80;99.90;;;;;;5013221;28;20042;-65
2021/04/17 01:27:40;;;;;;;5.50;3.20;;;5.70;99.90;;;;;;5013224;28;20502;-65
2021/04/17 01:30:25;;;;;;;9.27;3.10;;;5.70;99.90;;;;;;5013157;28;20038;-66
2021/04/17 01:32:50;;;;;;;7.45;3.30;;;5.80;99.90;;;;;;5013175;28;20483;-65
2021/04/17 01:35:20;;;;;;;5.82;2.88;;;5.80;99.90;;;;;;4995654;28;20076;-66
2021/04/17 01:37:51;;;;;;;5.80;2.97;;;5.70;99.90;;;;;;4995782;28;20030;-66
2021/04/17 01:40:24;;;;;;;5.80;2.75;;;5.60;99.90;;;;;;5013034;28;20120;-66
2021/04/17 01:42:55;;;;;;;6.00;2.60;;;5.60;99.90;;;;;;4995469;28;20057;-66
2021/04/17 01:45:25;;;;;;;5.35;2.90;;;5.50;99.90;;;;;;5012206;28;20088;-66
2021/04/17 01:47:56;;;;;;;4.78;2.80;;;5.30;99.90;;;;;;4995662;28;20033;-66
2021/04/17 01:50:27;;;;;;;3.90;2.65;;;5.20;99.90;;;;;;5012876;28;20109;-65
2021/04/17 01:52:55;;;;;;;5.28;2.92;;;5.20;99.90;;;;;;5012968;28;20044;-66
2021/04/17 01:55:21;;;;;;;4.85;2.88;;;5.30;99.90;;;;;;4995584;28;20026;-66
2021/04/17 01:57:49;;;;;;;5.78;2.88;;;5.30;99.90;;;;;;4995491;28;20536;-65
2021/04/17 02:00:17;;;;;;;8.10;3.25;;;5.30;99.90;;;;;;5012769;28;20033;-65
2021/04/17 02:02:43;;;;;;;7.35;2.75;;;5.30;99.90;;;;;;5012656;28;20121;-66
2021/04/17 02:05:09;;;;;;;6.70;2.97;;;5.30;99.90;;;;;;5012418;28;20033;-65
2021/04/17 02:07:35;;;;;;;5.95;3.40;;;5.30;99.90;;;;;;5012649;28;20060;-64
2021/04/17 02:10:01;;;;;;;5.03;3.17;;;5.30;99.90;;;;;;5012800;28;20065;-65
2021/04/17 02:12:27;;;;;;;8.20;3.60;;;5.30;99.90;;;;;;5012541;28;20029;-66
2021/04/17 02:14:55;;;;;;;6.15;3.70;;;5.20;99.90;;;;;;5012575;28;20030;-65
2021/04/17 02:17:33;;;;;;;5.00;3.25;;;5.30;99.90;;;;;;4994862;28;20482;-65
2021/04/17 02:20:15;;;;;;;7.55;3.72;;;5.20;99.90;;;;;;5012277;28;20045;-65
2021/04/17 02:22:44;;;;;;;6.22;3.50;;;5.20;99.90;;;;;;5012228;28;20399;-65
2021/04/17 02:25:12;;;;;;;6.22;3.72;;;5.10;99.90;;;;;;4995140;28;20032;-65
2021/04/17 02:27:37;;;;;;;9.10;3.50;;;5.20;99.90;;;;;;5012408;28;20034;-65
2021/04/17 02:30:04;;;;;;;5.80;3.03;;;5.10;99.90;;;;;;4994920;28;20030;-64
2021/04/17 02:32:30;;;;;;;7.70;3.58;;;5.00;99.90;;;;;;5011984;28;20452;-66
2021/04/17 02:34:56;;;;;;;6.05;3.67;;;5.00;99.90;;;;;;5012338;28;20120;-65
2021/04/17 02:37:22;;;;;;;5.43;3.50;;;5.00;99.90;;;;;;5012515;28;20145;-65
2021/04/17 02:39:48;;;;;;;8.13;3.38;;;5.00;99.90;;;;;;5012290;28;20410;-65
2021/04/17 02:42:14;;;;;;;8.85;3.40;;;4.90;99.90;;;;;;5012369;28;20632;-65
2021/04/17 02:44:40;;;;;;;6.22;3.38;;;4.90;99.90;;;;;;5012236;28;20121;-65
2021/04/17 02:47:07;;;;;;;5.47;3.50;;;4.80;99.90;;;;;;5012412;28;20114;-66
2021/04/17 02:49:33;;;;;;;6.85;3.30;;;4.80;99.90;;;;;;5012128;28;20471;-65
2021/04/17 02:51:58;;;;;;;5.88;3.22;;;4.70;99.90;;;;;;5012331;28;20042;-66
2021/04/17 02:54:24;;;;;;;5.57;3.45;;;4.70;99.90;;;;;;5012176;28;20117;-66
2021/04/17 02:56:51;;;;;;;6.10;3.78;;;4.70;99.90;;;;;;5015479;28;20120;-66
2021/04/17 02:59:17;;;;;;;10.32;3.60;;;4.60;99.90;;;;;;5016079;28;20037;-66
2021/04/17 03:01:43;;;;;;;8.65;3.35;;;4.60;99.90;;;;;;5015825;28;20034;-66
2021/04/17 03:04:09;;;;;;;6.47;3.90;;;4.60;99.90;;;;;;5015893;28;20030;-66
2021/04/17 03:06:35;;;;;;;5.20;3.08;;;4.60;99.90;;;;;;5015668;28;20030;-66
2021/04/17 03:09:01;;;;;;;5.97;3.33;;;4.60;99.90;;;;;;4998333;28;20050;-66
2021/04/17 03:11:27;;;;;;;6.00;3.45;;;4.60;99.90;;;;;;5015665;28;20033;-67
2021/04/17 03:13:53;;;;;;;5.45;3.22;;;4.60;99.90;;;;;;5015723;28;20049;-66
2021/04/17 03:16:19;;;;;;;7.78;3.28;;;4.50;99.90;;;;;;5015722;28;20037;-65
2021/04/17 03:18:45;;;;;;;7.47;3.63;;;4.50;99.90;;;;;;4998138;28;20575;-66
2021/04/17 03:21:11;;;;;;;8.30;3.95;;;4.50;99.90;;;;;;5015195;28;20064;-66
2021/04/17 03:23:36;;;;;;;13.52;3.60;;;4.50;99.90;;;;;;5015354;28;20040;-66
2021/04/17 03:26:03;;;;;;;5.82;3.60;;;4.40;99.90;;;;;;5015562;28;20034;-65
2021/04/17 03:28:29;;;;;;;5.82;3.30;;;4.40;99.90;;;;;;5015404;28;20065;-66
2021/04/17 03:30:55;;;;;;;5.68;3.42;;;4.30;99.90;;;;;;5015374;28;20053;-66
2021/04/17 03:33:21;;;;;;;9.27;3.38;;;4.40;99.90;;;;;;5015122;28;20038;-66
2021/04/17 03:35:47;;;;;;;6.75;3.53;;;4.30;99.90;;;;;;5015130;28;20041;-66
2021/04/17 03:38:13;;;;;;;6.00;3.88;;;4.30;99.90;;;;;;5015420;28;20155;-66
2021/04/17 03:40:39;;;;;;;7.25;4.22;;;4.30;99.90;;;;;;5015079;28;20471;-66
2021/04/17 03:43:04;;;;;;;7.38;3.65;;;4.30;99.90;;;;;;5015176;28;20034;-66
2021/04/17 03:45:31;;;;;;;8.40;3.83;;;4.30;99.90;;;;;;5014641;28;20034;-66
2021/04/17 03:47:57;;;;;;;7.00;3.78;;;4.40;99.90;;;;;;5015188;28;20117;-66
2021/04/17 03:50:23;;;;;;;9.85;3.92;;;4.30;99.90;;;;;;5015083;28;20109;-66
2021/04/17 03:52:49;;;;;;;8.60;3.53;;;4.30;99.90;;;;;;5015036;28;20033;-66
2021/04/17 03:55:16;;;;;;;5.30;3.30;;;4.30;99.90;;;;;;5014908;28;20034;-65
2021/04/17 03:57:44;;;;;;;8.52;4.30;;;4.20;99.90;;;;;;5014865;28;20063;-66
2021/04/17 04:00:15;;;;;;;6.53;3.95;;;4.20;99.90;;;;;;5014550;28;20368;-65
2021/04/17 04:02:41;;;;;;;6.57;3.67;;;4.30;99.90;;;;;;5014742;28;20029;-66
2021/04/17 04:05:08;;;;;;;6.80;4.03;;;4.30;99.90;;;;;;5014713;28;20040;-66
2021/04/17 04:07:33;;;;;;;7.05;3.92;;;4.20;99.90;;;;;;5014439;28;20044;-66
2021/04/17 04:09:59;;;;;;;8.00;3.67;;;4.20;99.90;;;;;;4997021;28;20026;-65
2021/04/17 04:12:25;;;;;;;6.13;3.65;;;4.20;99.90;;;;;;5014652;28;20463;-65
2021/04/17 04:14:51;;;;;;;7.22;4.40;;;4.10;99.90;;;;;;5014513;28;20038;-65
2021/04/17 04:17:17;;;;;;;6.32;3.83;;;4.00;99.90;;;;;;5014474;28;20033;-65
2021/04/17 04:19:42;;;;;;;6.93;4.47;;;4.10;99.90;;;;;;5014213;28;20056;-65
2021/04/17 04:22:08;;;;;;;8.23;4.90;;;4.10;99.90;;;;;;5014361;28;20378;-66
2021/04/17 04:24:34;;;;;;;8.25;4.30;;;4.00;99.90;;;;;;5014289;28;20045;-65
2021/04/17 04:27:00;;;;;;;6.95;4.20;;;3.90;99.90;;;;;;4996597;28;20383;-65
2021/04/17 04:29:27;;;;;;;7.35;4.07;;;4.00;99.90;;;;;;5014437;28;20034;-65
2021/04/17 04:31:53;;;;;;;8.35;3.65;;;3.90;99.90;;;;;;5013782;28;20455;-66
2021/04/17 04:34:19;;;;;;;6.32;3.60;;;4.00;99.90;;;;;;5014258;28;20069;-66
2021/04/17 04:36:44;;;;;;;6.90;4.10;;;4.00;99.90;;;;;;5013965;28;20064;-65
2021/04/17 04:39:10;;;;;;;7.53;3.95;;;3.80;99.90;;;;;;5014230;28;20107;-66
2021/04/17 04:41:36;;;;;;;7.30;4.13;;;3.80;99.90;;;;;;5014049;28;20080;-65
2021/04/17 04:44:04;;;;;;;7.53;4.40;;;3.80;99.90;;;;;;5013946;28;20030;-66
2021/04/17 04:46:31;;;;;;;6.60;3.83;;;3.80;99.90;;;;;;5013944;28;20034;-65
2021/04/17 04:48:57;;;;;;;10.73;4.50;;;3.90;99.90;;;;;;5013881;28;20034;-65
2021/04/17 04:51:23;;;;;;;6.15;3.90;;;4.00;99.90;;;;;;5013908;28;20117;-65
2021/04/17 04:53:49;;;;;;;8.38;4.43;;;4.00;99.90;;;;;;5013744;28;20567;-65
2021/04/17 04:56:15;;;;;;;9.23;4.38;;;4.10;99.90;;;;;;5013795;28;20117;-65
2021/04/17 04:58:41;;;;;;;8.93;4.20;;;4.10;99.90;;;;;;5013720;28;20467;-65
2021/04/17 05:01:06;;;;;;;7.95;4.55;;;4.10;99.90;;;;;;5013688;28;20080;-65
2021/04/17 05:03:32;;;;;;;8.50;4.00;;;4.20;99.90;;;;;;5013335;28;20038;-66
2021/04/17 05:05:58;;;;;;;7.93;4.30;;;4.30;99.90;;;;;;5013430;28;20059;-65
2021/04/17 05:08:24;;;;;;;8.23;4.50;;;4.30;99.90;;;;;;5013663;28;20038;-66
2021/04/17 05:10:50;;;;;;;10.73;5.35;;;4.40;99.90;;;;;;5013470;28;20434;-66
2021/04/17 05:13:15;;;;;;;11.43;6.05;;;4.40;99.90;;;;;;5013459;28;20065;-66
2021/04/17 05:15:41;;;;;;;8.13;5.28;;;4.50;99.90;;;;;;5013411;28;20085;-66
2021/04/17 05:18:07;;;;;;;7.95;4.78;;;4.50;99.90;;;;;;5012842;28;20037;-66
2021/04/17 05:20:33;;;;;;;7.55;4.88;;;4.50;99.90;;;;;;5012979;28;20050;-66
2021/04/17 05:22:59;;;;;;;8.02;5.40;;;4.60;99.90;;;;;;5013128;28;20062;-66
2021/04/17 05:25:25;;;;;;;8.90;5.10;;;4.70;99.90;;;;;;5013003;28;20072;-66
2021/04/17 05:27:50;;;;;;;9.13;4.50;;;4.50;99.90;;;;;;5013120;28;20097;-66
2021/04/17 05:30:17;;;;;;;10.55;4.70;;;4.60;99.90;;;;;;5013279;28;20040;-66
2021/04/17 05:32:43;;;;;;;11.90;4.45;;;4.60;99.90;;;;;;5012915;28;20372;-66
2021/04/17 05:35:10;;;;;;;7.28;3.90;;;4.70;99.90;;;;;;5013064;28;20164;-66
2021/04/17 05:37:35;;;;;;;12.48;3.92;;;4.80;99.90;;;;;;5013018;28;20372;-66
2021/04/17 05:40:02;;;;;;;8.13;3.90;;;5.00;99.90;;;;;;5012897;28;20030;-66
2021/04/17 05:42:28;;;;;;;6.70;3.38;;;5.00;99.90;;;;;;5011697;28;20029;-66
2021/04/17 05:44:53;;;;;;;7.47;3.20;;;5.10;99.90;;;;;;5012866;28;20042;-66
2021/04/17 05:47:19;;;;;;;8.18;4.10;;;5.10;99.90;;;;;;5012987;28;20125;-65
2021/04/17 05:49:45;;;;;;;8.63;3.70;;;5.20;99.90;;;;;;5012814;28;20040;-66
2021/04/17 05:52:10;;;;;;;22.42;9.23;;;5.30;99.90;;;;;;4992904;28;20038;-65
2021/04/17 05:54:36;;;;;;;20.10;11.00;;;5.40;99.90;;;;;;5012829;28;20037;-65
2021/04/17 05:57:02;;;;;;;11.68;5.88;;;5.40;99.90;;;;;;5012539;28;20070;-65
2021/04/17 05:59:28;;;;;;;10.52;4.70;;;5.40;99.90;;;;;;5011529;28;20030;-66
2021/04/17 06:01:54;;;;;;;7.20;4.10;;;5.50;99.90;;;;;;5011783;28;20117;-65
2021/04/17 06:04:19;;;;;;;8.23;4.53;;;5.40;99.90;;;;;;5011429;28;20033;-65
2021/04/17 06:06:45;;;;;;;8.18;3.60;;;5.50;99.90;;;;;;5012215;28;20033;-65
2021/04/17 06:09:11;;;;;;;9.30;4.55;;;5.50;99.90;;;;;;5012665;28;20040;-65
2021/04/17 06:11:36;;;;;;;5.93;3.88;;;5.60;99.90;;;;;;5012622;28;20033;-66
2021/04/17 06:14:02;;;;;;;7.00;3.58;;;5.60;99.90;;;;;;5012375;28;20108;-67
2021/04/17 06:16:28;;;;;;;6.72;3.83;;;5.60;99.90;;;;;;5012252;28;20030;-66
2021/04/17 06:18:54;;;;;;;8.38;4.53;;;5.60;99.90;;;;;;5012351;28;20041;-66
2021/04/17 06:21:20;;;;;;;6.57;3.97;;;5.60;99.90;;;;;;5012130;28;20042;-65
2021/04/17 06:23:45;;;;;;;11.23;4.32;;;5.80;99.90;;;;;;5012105;28;20037;-68
2021/04/17 06:26:11;;;;;;;9.20;3.75;;;5.90;99.90;;;;;;5012404;28;20095;-67
2021/04/17 06:28:37;;;;;;;8.65;4.43;;;6.00;99.90;;;;;;5012184;28;20022;-68
2021/04/17 06:31:03;;;;;;;7.38;3.92;;;6.00;99.90;;;;;;5014612;28;20026;-67
2021/04/17 06:33:29;;;;;;;8.02;4.90;;;6.00;99.90;;;;;;5016344;28;20169;-67
2021/04/17 06:35:55;;;;;;;7.55;4.68;;;6.00;99.90;;;;;;5016180;28;20117;-68
2021/04/17 06:38:43;;;;;;;9.77;4.68;;;6.10;99.90;;;;;;5016290;28;20041;-68
2021/04/17 06:41:13;;;;;;;7.60;4.07;;;6.20;99.90;;;;;;4999331;28;20418;-69
2021/04/17 06:43:42;;;;;;;7.22;4.47;;;6.20;99.90;;;;;;5015016;28;20387;-69
2021/04/17 06:46:13;;;;;;;8.80;4.85;;;6.30;99.90;;;;;;5015956;28;20736;-69
2021/04/17 06:48:40;;;;;;;8.77;4.53;;;6.30;99.90;;;;;;5016199;28;20486;-68
2021/04/17 06:51:11;;;;;;;8.35;4.85;;;6.30;99.90;;;;;;5012889;28;20579;-68
2021/04/17 06:53:38;;;;;;;8.57;4.93;;;6.30;99.90;;;;;;5016053;28;20119;-69
2021/04/17 06:56:05;;;;;;;9.32;4.93;;;6.40;99.90;;;;;;5031032;28;20038;-68
2021/04/17 06:58:31;;;;;;;7.07;4.82;;;6.50;99.90;;;;;;5015642;28;20034;-67
2021/04/17 07:00:59;;;;;;;9.50;5.10;;;6.60;99.90;;;;;;5015866;28;20117;-70
2021/04/17 07:03:25;;;;;;;7.47;4.43;;;6.80;99.90;;;;;;5015689;28;20072;-68
2021/04/17 07:05:50;;;;;;;17.67;8.43;;;6.90;99.90;;;;;;5015299;28;20116;-69
2021/04/17 07:08:17;;;;;;;9.95;5.07;;;6.80;99.90;;;;;;5015730;28;20025;-69
2021/04/17 07:10:43;;;;;;;15.57;6.15;;;6.90;99.90;;;;;;5030904;28;20041;-69
2021/04/17 07:13:13;;;;;;;10.48;5.28;;;6.80;99.90;;;;;;5010848;28;20034;-68
2021/04/17 07:15:41;;;;;;;9.93;5.20;;;7.00;99.90;;;;;;4996008;28;20035;-69
2021/04/17 07:18:34;;;;;;;9.38;5.20;;;7.00;99.90;;;;;;4995756;28;20033;-69
2021/04/17 07:21:26;;;;;;;14.52;5.35;;;7.10;99.90;;;;;;5010810;28;20045;-70
2021/04/17 07:23:52;;;;;;;10.10;4.78;;;7.20;99.90;;;;;;5012594;28;20041;-70
2021/04/17 07:26:27;;;;;;;8.75;4.75;;;7.30;99.90;;;;;;5015555;28;20037;-69
2021/04/17 07:29:13;;;;;;;10.93;4.57;;;7.40;99.90;;;;;;5014986;28;20363;-71
2021/04/17 07:31:50;;;;;;;11.05;5.97;;;7.30;99.90;;;;;;4997664;28;20046;-69
2021/04/17 07:34:21;;;;;;;11.52;4.82;;;7.30;99.90;;;;;;5015327;28;20383;-68
2021/04/17 07:36:56;;;;;;;7.55;5.32;;;7.50;99.90;;;;;;5015304;28;20026;-67
2021/04/17 07:39:38;;;;;;;8.60;4.55;;;7.50;99.90;;;;;;5015353;28;20118;-68
2021/04/17 07:42:15;;;;;;;7.13;4.00;;;7.60;99.90;;;;;;5014732;28;20025;-69
2021/04/17 07:44:45;;;;;;;8.90;4.40;;;7.70;99.90;;;;;;5015069;28;20053;-69
2021/04/17 07:47:12;;;;;;;9.27;4.80;;;7.80;99.90;;;;;;5015326;28;20058;-68
2021/04/17 07:49:40;;;;;;;10.20;4.80;;;7.90;99.90;;;;;;5030181;28;20111;-67
2021/04/17 07:52:13;;;;;;;13.90;5.00;;;8.00;99.90;;;;;;5027635;28;20187;-69
2021/04/17 07:55:00;;;;;;;8.25;4.35;;;8.00;99.90;;;;;;4997172;28;20057;-68
2021/04/17 07:57:35;;;;;;;7.28;4.35;;;8.20;99.90;;;;;;5014800;28;20058;-67
2021/04/17 08:00:03;;;;;;;11.52;5.22;;;8.30;99.90;;;;;;5014344;28;20034;-68
2021/04/17 08:02:31;;;;;;;7.88;4.75;;;8.70;99.90;;;;;;5014495;28;20041;-68
2021/04/17 08:04:59;;;;;;;7.85;4.82;;;8.80;99.90;;;;;;5029658;28;20033;-68
2021/04/17 08:07:28;;;;;;;9.93;4.32;;;9.10;99.90;;;;;;5014776;28;20038;-68
2021/04/17 08:09:58;;;;;;;7.78;4.35;;;9.10;99.90;;;;;;5014530;28;20038;-68
2021/04/17 08:12:25;;;;;;;7.85;4.45;;;9.20;99.90;;;;;;5014663;28;20383;-68
2021/04/17 08:14:51;;;;;;;8.88;4.13;;;9.10;99.90;;;;;;4996263;28;20030;-68
2021/04/17 08:17:21;;;;;;;7.85;4.03;;;9.10;99.90;;;;;;4994982;28;20034;-68
2021/04/17 08:19:47;;;;;;;8.27;4.32;;;9.30;99.90;;;;;;4994638;28;20046;-67
2021/04/17 08:22:15;;;;;;;10.82;4.50;;;9.50;99.90;;;;;;4995043;28;20117;-67
2021/04/17 08:24:41;;;;;;;8.73;4.30;;;9.80;99.50;;;;;;4994772;28;20030;-67
2021/04/17 08:27:07;;;;;;;8.80;4.30;;;10.10;98.80;;;;;;4993630;28;20034;-68
2021/04/17 08:29:54;;;;;;;11.02;3.53;;;10.20;98.20;;;;;;4993443;28;20041;-67
2021/04/17 08:32:35;;;;;;;7.82;3.85;;;10.30;97.80;;;;;;4994812;28;20110;-68
2021/04/17 08:35:38;;;;;;;14.93;3.97;;;10.10;97.60;;;;;;4994536;28;20395;-68
2021/04/17 08:38:08;;;;;;;6.25;3.70;;;10.00;98.30;;;;;;4977510;28;20071;-68
2021/04/17 08:40:40;;;;;;;8.13;4.43;;;10.30;97.10;;;;;;4994388;28;20129;-67
2021/04/17 08:43:25;;;;;;;;;;;10.50;96.50;;;;;;4997982;28;20093;-67
2021/04/17 08:46:15;;;;;;;6.70;3.10;;;10.70;96.20;;;;;;5013578;28;19913;-68
2021/04/17 08:48:45;;;;;;;6.25;3.65;;;10.80;95.40;;;;;;5013967;28;20056;-66
2021/04/17 08:51:36;;;;;;;7.15;3.70;;;11.00;95.00;;;;;;5013525;28;20034;-67
2021/04/17 08:54:02;;;;;;;5.93;3.40;;;11.30;92.80;;;;;;4993166;28;20121;-67
2021/04/17 08:56:59;;;;;;;4.85;2.65;;;11.50;90.80;;;;;;4994287;28;20559;-66
2021/04/17 08:59:35;;;;;;;6.65;2.70;;;11.40;91.00;;;;;;4969184;28;20053;-68
2021/04/17 09:02:13;;;;;;;10.45;4.32;;;11.10;91.40;;;;;;4994046;28;20085;-66
2021/04/17 09:05:09;;;;;;;8.50;3.22;;;11.10;91.40;;;;;;4993860;28;20092;-67
2021/04/17 09:07:41;;;;;;;7.00;2.30;;;11.30;90.80;;;;;;4994089;28;20529;-66
2021/04/17 09:10:25;;;;;;;7.40;2.65;;;11.50;92.10;;;;;;4993777;28;20537;-69
2021/04/17 09:13:09;;;;;;;9.10;2.60;;;11.60;90.90;;;;;;4995885;28;20080;-68
2021/04/17 09:15:52;;;;;;;9.50;2.58;;;11.90;87.20;;;;;;5013436;28;20129;-70
2021/04/17 09:18:33;;;;;;;7.15;2.20;;;11.80;87.70;;;;;;5013474;28;20042;-69
2021/04/17 09:21:11;;;;;;;7.75;2.53;;;12.00;83.60;;;;;;5029252;28;20049;-68
2021/04/17 09:23:46;;;;;;;10.80;2.90;;;11.80;84.20;;;;;;5033043;28;20064;-66
2021/04/17 09:26:33;;;;;;;4.30;2.00;;;11.40;84.80;;;;;;5032870;28;20041;-67
2021/04/17 09:29:17;;;;;;;4.65;1.90;;;11.80;82.60;;;;;;5032687;28;20038;-67
2021/04/17 09:31:45;;;;;;;5.53;2.20;;;11.90;82.30;;;;;;5032640;28;20072;-67
2021/04/17 09:34:15;;;;;;;3.40;1.98;;;11.90;80.90;;;;;;5032876;28;20033;-66
2021/04/17 09:36:42;;;;;;;4.32;1.90;;;12.40;77.00;;;;;;5032543;28;20037;-68
2021/04/17 09:39:26;;;;;;;4.57;1.65;;;12.10;74.20;;;;;;5032703;28;20033;-69
2021/04/17 09:41:53;;;;;;;3.28;2.28;;;12.10;74.30;;;;;;5031583;28;20029;-67
2021/04/17 09:44:20;;;;;;;4.20;1.73;;;12.00;73.90;;;;;;5032615;28;20030;-67
2021/04/17 09:47:02;;;;;;;4.80;1.67;;;12.00;73.60;;;;;;5032608;28;20026;-66
2021/04/17 09:49:38;;;;;;;6.22;1.80;;;11.80;73.90;;;;;;5032674;28;20034;-67
2021/04/17 09:52:05;;;;;;;5.45;1.67;;;12.00;71.40;;;;;;5032427;28;20036;-67
2021/04/17 09:54:31;;;;;;;5.88;1.73;;;12.30;70.40;;;;;;5032284;28;20034;-67
2021/04/17 09:56:57;;;;;;;4.63;2.15;;;12.30;69.20;;;;;;5032394;28;20036;-66
2021/04/17 09:59:23;;;;;;;5.90;2.03;;;12.60;69.10;;;;;;5032484;28;20458;-67
2021/04/17 10:01:57;;;;;;;5.18;1.25;;;12.50;67.60;;;;;;5031248;28;20034;-67
2021/04/17 10:04:23;;;;;;;5.03;1.95;;;12.20;65.70;;;;;;5032090;28;20084;-67
2021/04/17 10:07:02;;;;;;;4.38;1.80;;;12.20;68.30;;;;;;5032388;28;20498;-66
2021/04/17 10:09:28;;;;;;;7.95;1.98;;;12.00;68.10;;;;;;5032468;28;20597;-68
2021/04/17 10:12:05;;;;;;;7.00;2.15;;;12.30;69.50;;;;;;5032429;28;20038;-68
2021/04/17 10:14:31;;;;;;;5.65;1.88;;;12.60;68.80;;;;;;5032257;28;20026;-66
2021/04/17 10:16:57;;;;;;;10.73;2.10;;;12.50;67.00;;;;;;5032043;28;20486;-66
2021/04/17 10:19:23;;;;;;;5.60;2.20;;;12.70;67.10;;;;;;5031757;28;20037;-66
2021/04/17 10:22:01;;;;;;;4.28;2.00;;;13.10;67.00;;;;;;5030999;28;20026;-66
2021/04/17 10:24:28;;;;;;;4.32;1.92;;;13.20;66.40;;;;;;5032117;28;20074;-66
2021/04/17 10:27:04;;;;;;;5.70;1.55;;;13.00;66.20;;;;;;5032136;28;20072;-68
2021/04/17 10:29:47;;;;;;;3.20;1.70;;;13.30;65.50;;;;;;5031806;28;20463;-69
2021/04/17 10:32:27;;;;;;;4.38;2.05;;;13.10;65.60;;;;;;5031663;28;20033;-67
2021/04/17 10:35:00;;;;;;;4.37;1.73;;;13.20;65.60;;;;;;5032158;28;20036;-67
2021/04/17 10:37:27;;;;;;;6.68;1.90;;;12.70;66.20;;;;;;5032078;28;20029;-68
2021/04/17 10:40:06;;;;;;;4.90;2.00;;;12.90;66.50;;;;;;5031987;28;20045;-66
2021/04/17 10:42:56;;;;;;;3.83;1.48;;;12.90;64.90;;;;;;5031975;28;20033;-66
2021/04/17 10:45:42;;;;;;;4.55;1.80;;;13.00;66.70;;;;;;5014531;28;20483;-66
2021/04/17 10:48:15;;;;;;;5.75;1.85;;;13.20;64.90;;;;;;5011530;28;20384;-66
2021/04/17 10:51:01;;;;;;;3.60;1.95;;;13.10;65.00;;;;;;5031561;28;20026;-67
2021/04/17 10:53:42;;;;;;;4.07;1.90;;;13.60;62.30;;;;;;5031977;28;20033;-68
2021/04/17 10:56:21;;;;;;;3.78;1.67;;;13.80;61.20;;;;;;5031756;28;20045;-67
2021/04/17 10:59:02;;;;;;;7.93;1.60;;;13.40;59.10;;;;;;5031812;28;20125;-67
2021/04/17 11:01:35;;;;;;;5.20;2.35;;;13.10;60.40;;;;;;5031850;28;20486;-67
2021/04/17 11:04:04;;;;;;;9.18;3.08;;;13.40;59.10;;;;;;5031644;28;20131;-68
2021/04/17 11:06:39;;;;;;;5.28;2.00;;;13.70;54.90;;;;;;5031700;28;20076;-67
2021/04/17 11:09:11;;;;;;;8.63;2.53;;;13.80;55.70;;;;;;5031654;28;20033;-66
2021/04/17 11:11:50;;;;;;;3.97;1.85;;;14.00;57.50;;;;;;5031748;28;20026;-67
2021/04/17 11:14:21;;;;;;;4.20;1.63;;;14.20;55.40;;;;;;5031687;28;20450;-67
2021/04/17 11:16:50;;;;;;;66.22;19.00;;;14.90;53.40;;;;;;5033229;28;20030;-67
2021/04/17 11:19:37;;;;;;;7.93;2.45;;;15.00;54.90;;;;;;5035206;28;20041;-67
2021/04/17 11:22:14;;;;;;;3.78;1.80;;;14.70;54.30;;;;;;5035226;28;20085;-66
2021/04/17 11:24:43;;;;;;;4.13;1.70;;;14.20;55.90;;;;;;5035329;28;20029;-69
2021/04/17 11:27:09;;;;;;;5.35;1.80;;;14.80;55.60;;;;;;5035118;28;20030;-67
2021/04/17 11:29:35;;;;;;;5.32;2.00;;;14.80;55.40;;;;;;5035161;28;20041;-66
2021/04/17 11:32:02;;;;;;;3.92;1.67;;;14.80;55.20;;;;;;5034727;28;20026;-67
2021/04/17 11:34:29;;;;;;;7.82;2.03;;;14.90;55.20;;;;;;5035190;28;20033;-67
2021/04/17 11:36:55;;;;;;;4.43;1.95;;;15.00;55.50;;;;;;5035002;28;20033;-66
2021/04/17 11:39:20;;;;;;;6.82;1.98;;;15.10;55.20;;;;;;5035048;28;20092;-69
2021/04/17 11:41:48;;;;;;;7.07;2.38;;;15.20;54.50;;;;;;5034968;28;20029;-67
2021/04/17 11:44:14;;;;;;;5.32;2.25;;;15.10;54.10;;;;;;5034617;28;20044;-73
2021/04/17 11:46:39;;;;;;;5.97;1.83;;;14.50;54.00;;;;;;5016821;28;20116;-71
2021/04/17 11:49:06;;;;;;;6.22;1.92;;;14.30;55.00;;;;;;5034675;28;20045;-70
2021/04/17 11:51:33;;;;;;;5.85;2.90;;;14.40;53.70;;;;;;5034704;28;20075;-68
2021/04/17 11:53:58;;;;;;;2.88;1.60;;;14.80;52.40;;;;;;5034697;28;20037;-66
2021/04/17 11:56:24;;;;;;;4.72;1.98;;;14.80;52.00;;;;;;5034378;28;20029;-69
2021/04/17 11:58:52;;;;;;;4.25;1.45;;;15.30;52.00;;;;;;5034630;28;20095;-68
2021/04/17 12:01:19;;;;;;;5.53;1.98;;;15.80;49.80;;;;;;5034594;28;20068;-69
2021/04/17 12:03:45;;;;;;;2.67;1.27;;;15.90;49.40;;;;;;5034400;28;20422;-67
2021/04/17 12:06:11;;;;;;;4.45;1.60;;;15.80;48.90;;;;;;5034388;28;20025;-68
2021/04/17 12:08:37;;;;;;;3.63;1.70;;;16.70;49.40;;;;;;5034465;28;20140;-67
2021/04/17 12:11:03;;;;;;;4.28;2.13;;;16.60;48.90;;;;;;5034065;28;20592;-68
2021/04/17 12:13:29;;;;;;;3.92;1.38;;;16.10;49.90;;;;;;5034179;28;20025;-68
2021/04/17 12:15:55;;;;;;;3.05;1.60;;;16.70;48.70;;;;;;5034401;28;20082;-68
2021/04/17 12:18:21;;;;;;;4.65;1.52;;;15.80;49.30;;;;;;5032601;28;20033;-68
2021/04/17 12:20:47;;;;;;;4.28;1.80;;;16.00;50.40;;;;;;5033888;28;20170;-68
2021/04/17 12:23:14;;;;;;;3.67;1.65;;;15.20;50.50;;;;;;5015526;28;20068;-69
2021/04/17 12:25:40;;;;;;;4.15;1.60;;;15.80;50.50;;;;;;5034196;28;20101;-68
2021/04/17 12:28:06;;;;;;;4.88;2.08;;;15.70;50.50;;;;;;5033842;28;20037;-68
2021/04/17 12:30:33;;;;;;;3.25;1.63;;;16.20;49.90;;;;;;5034017;28;20029;-68
2021/04/17 12:32:59;;;;;;;3.45;1.52;;;17.00;49.80;;;;;;5033894;28;20065;-68
2021/04/17 12:35:25;;;;;;;3.15;1.70;;;17.70;47.70;;;;;;5033926;28;20142;-67
2021/04/17 12:37:51;;;;;;;4.53;1.70;;;17.30;46.50;;;;;;5033982;28;20029;-68
2021/04/17 12:40:17;;;;;;;6.70;1.77;;;16.50;47.60;;;;;;5033835;28;20041;-68
2021/04/17 12:42:43;;;;;;;4.13;1.77;;;15.60;49.20;;;;;;5033716;28;20056;-67
2021/04/17 12:45:11;;;;;;;6.85;1.70;;;16.10;49.50;;;;;;5033642;28;20026;-68
2021/04/17 12:47:41;;;;;;;3.60;1.45;;;16.80;48.40;;;;;;5032579;28;20056;-68
2021/04/17 12:50:09;;;;;;;3.08;1.33;;;17.20;46.70;;;;;;5015607;28;20055;-68
2021/04/17 12:52:36;;;;;;;4.18;1.75;;;17.30;46.90;;;;;;5033511;28;20363;-68
2021/04/17 12:55:04;;;;;;;5.38;2.17;;;16.30;47.90;;;;;;5033617;28;20030;-68
2021/04/17 12:57:30;;;;;;;4.18;1.90;;;16.70;49.60;;;;;;5033485;28;20399;-67
2021/04/17 12:59:55;;;;;;;4.57;1.70;;;16.70;49.30;;;;;;5033221;28;20033;-67
2021/04/17 13:02:21;;;;;;;5.25;2.30;;;17.00;49.30;;;;;;5033271;28;20029;-67
2021/04/17 13:04:50;;;;;;;4.35;2.00;;;16.40;48.40;;;;;;5033278;28;20033;-64
2021/04/17 13:07:16;;;;;;;4.40;1.70;;;16.90;49.50;;;;;;5033249;28;20099;-65